createdAt,value
2023-02-26T00:01:31.487Z,96837.06
2023-02-26T00:04:01.514Z,96825.66
2023-02-26T00:06:29.772Z,96806.75
2023-02-26T00:08:57.291Z,96813.31
2023-02-26T00:11:26.727Z,96795.94
2023-02-26T00:13:54.302Z,96788.91
2023-02-26T00:16:31.733Z,96799.16
2023-02-26T00:19:02.004Z,96796.50
2023-02-26T00:21:30.675Z,96793.75
2023-02-26T00:23:58.704Z,96772.41
2023-02-26T00:26:31.662Z,96746.72
2023-02-26T00:28:59.956Z,96755.00
2023-02-26T00:31:28.203Z,96730.47
2023-02-26T00:33:57.386Z,96734.16
2023-02-26T00:36:36.341Z,96730.13
2023-02-26T00:39:39.203Z,96716.53
2023-02-26T00:42:06.896Z,96725.50
2023-02-26T00:44:34.750Z,96717.78
2023-02-26T00:47:27.230Z,96741.84
2023-02-26T00:50:36.583Z,96743.47
2023-02-26T00:53:22.484Z,96731.00
2023-02-26T00:55:49.760Z,96720.06
2023-02-26T00:58:16.937Z,96729.72
2023-02-26T01:00:44.186Z,96719.59
2023-02-26T01:03:12.204Z,96724.13
2023-02-26T01:05:39.702Z,96709.38
2023-02-26T01:08:20.670Z,96712.34
2023-02-26T01:10:48.054Z,96701.50
2023-02-26T01:13:15.657Z,96719.72
2023-02-26T01:15:49.382Z,96707.53
2023-02-26T01:18:20.603Z,96694.75
2023-02-26T01:20:51.133Z,96696.94
2023-02-26T01:23:32.409Z,96685.75
2023-02-26T01:26:04.316Z,96680.78
2023-02-26T01:28:32.167Z,96686.22
2023-02-26T01:31:04.214Z,96686.22
2023-02-26T01:33:54.522Z,96676.28
2023-02-26T01:36:24.896Z,96665.38
2023-02-26T01:39:05.578Z,96666.97
2023-02-26T01:41:40.088Z,96685.16
2023-02-26T01:44:44.382Z,96664.53
2023-02-26T01:47:24.140Z,96645.19
2023-02-26T01:49:51.451Z,96656.03
2023-02-26T01:52:49.014Z,96647.25
2023-02-26T01:55:18.311Z,96646.72
2023-02-26T01:57:48.642Z,96635.53
2023-02-26T02:00:16.747Z,96636.34
2023-02-26T02:02:43.991Z,96631.63
2023-02-26T02:05:31.495Z,96634.84
2023-02-26T02:07:59.103Z,96640.16
2023-02-26T02:10:27.251Z,96651.28
2023-02-26T02:12:57.575Z,96639.69
2023-02-26T02:16:16.960Z,96624.59
2023-02-26T02:18:59.218Z,96648.31
2023-02-26T02:21:39.803Z,96637.00
2023-02-26T02:24:11.654Z,96635.28
2023-02-26T02:26:53.893Z,96633.06
2023-02-26T02:29:29.819Z,96618.47
2023-02-26T02:32:06.307Z,96634.00
2023-02-26T02:34:41.946Z,96622.38
2023-02-26T02:37:15.099Z,96621.81
2023-02-26T02:39:50.644Z,96611.78
2023-02-26T02:42:27.317Z,96604.41
2023-02-26T02:44:59.436Z,96611.34
2023-02-26T02:47:29.436Z,96610.09
2023-02-26T02:50:10.490Z,96621.22
2023-02-26T02:52:54.856Z,96614.22
2023-02-26T02:55:26.088Z,96607.09
2023-02-26T02:58:11.524Z,96608.47
2023-02-26T03:00:42.902Z,96622.28
2023-02-26T03:03:34.962Z,96607.78
2023-02-26T03:06:03.294Z,96597.53
2023-02-26T03:08:37.832Z,96598.13
2023-02-26T03:11:04.897Z,96601.34
2023-02-26T03:13:32.114Z,96608.25
2023-02-26T03:16:28.627Z,96606.63
2023-02-26T03:19:26.605Z,96602.38
2023-02-26T03:21:58.941Z,96603.19
2023-02-26T03:24:56.356Z,96596.84
2023-02-26T03:27:27.626Z,96606.16
2023-02-26T03:30:01.146Z,96609.41
2023-02-26T03:32:50.634Z,96615.28
2023-02-26T03:35:28.315Z,96620.78
2023-02-26T03:37:59.666Z,96620.78
2023-02-26T03:40:39.504Z,96632.19
2023-02-26T03:43:13.928Z,96639.13
2023-02-26T03:45:45.985Z,96627.69
2023-02-26T03:48:16.903Z,96639.91
2023-02-26T03:50:47.740Z,96638.06
2023-02-26T03:53:38.851Z,96646.81
2023-02-26T03:56:36.714Z,96626.44
2023-02-26T03:59:10.019Z,96652.91
2023-02-26T04:01:43.813Z,96657.78
2023-02-26T04:04:24.424Z,96666.06
2023-02-26T04:06:54.311Z,96665.25
2023-02-26T04:09:21.848Z,96665.84
2023-02-26T04:11:50.207Z,96654.19
2023-02-26T04:14:17.246Z,96668.03
2023-02-26T04:16:45.381Z,96664.91
2023-02-26T04:19:12.741Z,96687.94
2023-02-26T04:21:39.937Z,96687.94
2023-02-26T04:24:06.928Z,96685.31
2023-02-26T04:26:35.503Z,96693.00
2023-02-26T04:29:02.490Z,96695.66
2023-02-26T04:31:29.987Z,96694.50
2023-02-26T04:33:57.079Z,96712.47
2023-02-26T04:36:24.490Z,96725.72
2023-02-26T04:38:51.653Z,96740.00
2023-02-26T04:41:19.142Z,96727.78
2023-02-26T04:43:48.998Z,96721.47
2023-02-26T04:46:24.879Z,96748.50
2023-02-26T04:48:52.530Z,96723.06
2023-02-26T04:51:20.421Z,96745.06
2023-02-26T04:53:47.837Z,96745.66
2023-02-26T04:56:15.001Z,96754.84
2023-02-26T04:58:42.217Z,96750.16
2023-02-26T05:01:14.995Z,96764.66
2023-02-26T05:03:42.248Z,96767.31
2023-02-26T05:06:10.309Z,96778.69
2023-02-26T05:08:41.823Z,96791.16
2023-02-26T05:11:10.247Z,96788.03
2023-02-26T05:13:37.894Z,96810.50
2023-02-26T05:16:05.870Z,96800.34
2023-02-26T05:18:33.866Z,96830.28
2023-02-26T05:21:01.521Z,96797.47
2023-02-26T05:23:31.431Z,96829.25
2023-02-26T05:25:58.791Z,96829.25
2023-02-26T05:28:26.923Z,96815.34
2023-02-26T05:30:54.481Z,96837.69
2023-02-26T05:33:21.602Z,96831.81
2023-02-26T05:35:49.399Z,96849.78
2023-02-26T05:38:16.490Z,96859.34
2023-02-26T05:40:43.440Z,96868.69
2023-02-26T05:43:10.583Z,96847.03
2023-02-26T05:45:37.496Z,96868.00
2023-02-26T05:48:04.599Z,96849.81
2023-02-26T05:50:31.580Z,96854.88
2023-02-26T05:52:59.043Z,96857.91
2023-02-26T05:55:26.000Z,96863.66
2023-02-26T05:57:53.016Z,96862.38
2023-02-26T06:00:20.394Z,96876.78
2023-02-26T06:02:47.382Z,96875.78
2023-02-26T06:05:14.306Z,96875.91
2023-02-26T06:07:41.576Z,96902.53
2023-02-26T06:10:09.648Z,96889.75
2023-02-26T06:12:37.048Z,96876.03
2023-02-26T06:15:05.446Z,96887.44
2023-02-26T06:17:33.274Z,96884.31
2023-02-26T06:20:00.342Z,96887.78
2023-02-26T06:22:27.294Z,96899.09
2023-02-26T06:24:55.764Z,96918.69
2023-02-26T06:27:23.412Z,96895.28
2023-02-26T06:29:50.412Z,96896.81
2023-02-26T06:32:17.565Z,96915.13
2023-02-26T06:34:44.611Z,96910.06
2023-02-26T06:37:11.693Z,96937.97
2023-02-26T06:39:38.666Z,96912.13
2023-02-26T06:42:05.684Z,96913.28
2023-02-26T06:44:32.657Z,96929.88
2023-02-26T06:46:59.565Z,96934.28
2023-02-26T06:49:26.669Z,96933.59
2023-02-26T06:51:53.667Z,96933.13
2023-02-26T06:54:20.715Z,96940.03
2023-02-26T06:56:47.689Z,96956.66
2023-02-26T06:59:16.492Z,96950.31
2023-02-26T07:01:43.718Z,96969.91
2023-02-26T07:04:10.872Z,96955.81
2023-02-26T07:06:37.917Z,96972.13
2023-02-26T07:09:04.920Z,96965.75
2023-02-26T07:11:36.671Z,96980.19
2023-02-26T07:14:03.809Z,96990.22
2023-02-26T07:16:31.048Z,96969.59
2023-02-26T07:18:58.024Z,96975.47
2023-02-26T07:21:25.027Z,96980.19
2023-02-26T07:23:52.220Z,96998.75
2023-02-26T07:26:19.199Z,96979.53
2023-02-26T07:28:46.204Z,96978.16
2023-02-26T07:31:13.374Z,96987.88
2023-02-26T07:33:42.255Z,96978.44
2023-02-26T07:36:16.044Z,96974.84
2023-02-26T07:38:47.954Z,96985.16
2023-02-26T07:41:21.166Z,96979.50
2023-02-26T07:43:54.929Z,96991.97
2023-02-26T07:46:36.501Z,97003.16
2023-02-26T07:49:20.762Z,96997.63
2023-02-26T07:51:56.438Z,97006.94
2023-02-26T07:54:29.478Z,97015.97
2023-02-26T07:57:01.568Z,96993.22
2023-02-26T07:59:38.823Z,97020.00
2023-02-26T08:02:13.310Z,97027.19
2023-02-26T08:04:44.161Z,97010.53
2023-02-26T08:07:13.310Z,97009.25
2023-02-26T08:09:40.862Z,97042.66
2023-02-26T08:12:15.323Z,97042.66
2023-02-26T08:17:45.018Z,97021.88
2023-02-26T08:23:20.261Z,97057.78
2023-02-26T08:29:07.564Z,97044.97
2023-02-26T08:31:39.343Z,97071.22
2023-02-26T08:34:11.605Z,97088.81
2023-02-26T08:46:48.365Z,97084.91
2023-02-26T08:49:24.664Z,97104.88
2023-02-26T08:51:55.404Z,97087.56
2023-02-26T08:57:13.507Z,97113.56
2023-02-26T08:59:41.836Z,97092.94
2023-02-26T09:02:11.853Z,97112.22
2023-02-26T09:04:53.714Z,97117.06
2023-02-26T09:07:47.510Z,97113.03
2023-02-26T09:10:15.858Z,97102.81
2023-02-26T09:12:50.104Z,97142.69
2023-02-26T09:15:47.347Z,97111.63
2023-02-26T09:18:42.765Z,97121.91
2023-02-26T09:21:19.398Z,97151.44
2023-02-26T09:23:55.890Z,97156.28
2023-02-26T09:27:02.355Z,97151.91
2023-02-26T09:29:34.660Z,97158.97
2023-02-26T09:32:12.119Z,97136.72
2023-02-26T09:34:40.321Z,97149.84
2023-02-26T09:37:16.024Z,97146.81
2023-02-26T09:43:01.702Z,97158.75
2023-02-26T09:45:38.144Z,97155.41
2023-02-26T09:48:08.650Z,97167.91
2023-02-26T09:53:39.612Z,97155.69
2023-02-26T09:56:20.952Z,97184.78
2023-02-26T09:59:00.714Z,97224.75
2023-02-26T10:04:57.473Z,97195.03
2023-02-26T10:07:41.812Z,97179.53
2023-02-26T10:10:42.406Z,97190.72
2023-02-26T10:13:38.614Z,97219.25
2023-02-26T10:16:19.023Z,97196.75
2023-02-26T10:19:06.203Z,97188.09
2023-02-26T10:21:39.718Z,97182.81
2023-02-26T10:24:14.699Z,97223.28
2023-02-26T10:26:46.490Z,97207.81
2023-02-26T10:29:25.708Z,97210.56
2023-02-26T10:32:03.351Z,97202.88
2023-02-26T10:34:45.710Z,97220.63
2023-02-26T10:37:20.692Z,97213.44
2023-02-26T10:40:23.652Z,97194.50
2023-02-26T10:43:02.671Z,97226.59
2023-02-26T10:46:18.955Z,97212.59
2023-02-26T10:49:36.234Z,97211.81
2023-02-26T10:52:33.175Z,97233.44
2023-02-26T10:55:27.778Z,97210.81
2023-02-26T10:58:18.564Z,97223.50
2023-02-26T11:01:03.223Z,97229.28
2023-02-26T11:03:39.523Z,97222.47
2023-02-26T11:06:09.223Z,97251.50
2023-02-26T11:08:45.579Z,97238.50
2023-02-26T11:11:43.523Z,97220.38
2023-02-26T11:14:27.137Z,97242.75
2023-02-26T11:17:11.425Z,97240.19
2023-02-26T11:20:16.093Z,97234.66
2023-02-26T11:22:59.302Z,97257.31
2023-02-26T11:25:31.666Z,97246.56
2023-02-26T11:28:04.945Z,97246.75
2023-02-26T11:30:45.311Z,97250.25
2023-02-26T11:33:24.747Z,97253.63
2023-02-26T11:36:04.873Z,97259.47
2023-02-26T11:38:42.587Z,97248.97
2023-02-26T11:41:12.132Z,97265.97
2023-02-26T11:43:45.034Z,97273.97
2023-02-26T11:46:17.006Z,97252.31
2023-02-26T11:48:54.821Z,97255.06
2023-02-26T11:51:29.569Z,97271.13
2023-02-26T11:54:36.130Z,97256.69
2023-02-26T12:03:34.406Z,97244.09
2023-02-26T12:06:49.412Z,97248.28
2023-02-26T12:09:20.668Z,97255.78
2023-02-26T12:12:09.746Z,97255.78
2023-02-26T12:15:21.032Z,97255.16
2023-02-26T12:18:42.018Z,97266.59
2023-02-26T12:21:45.105Z,97282.16
2023-02-26T12:24:50.010Z,97330.63
2023-02-26T12:27:35.217Z,97328.38
2023-02-26T12:30:11.859Z,97314.13
2023-02-26T12:33:07.929Z,97322.09
2023-02-26T12:35:50.353Z,97309.91
2023-02-26T12:38:31.761Z,97325.97
2023-02-26T12:41:20.133Z,97337.78
2023-02-26T12:44:00.165Z,97350.00
2023-02-26T12:46:59.645Z,97329.59
2023-02-26T12:49:54.076Z,97347.50
2023-02-26T12:52:38.797Z,97334.66
2023-02-26T12:55:30.023Z,97328.53
2023-02-26T12:58:46.560Z,97337.88
2023-02-26T13:01:38.657Z,97350.50
2023-02-26T13:04:33.930Z,97351.09
2023-02-26T13:07:11.008Z,97370.03
2023-02-26T13:09:56.246Z,97378.78
2023-02-26T13:12:40.857Z,97370.47
2023-02-26T13:15:47.628Z,97377.59
2023-02-26T13:18:21.832Z,97383.88
2023-02-26T13:21:16.327Z,97367.44
2023-02-26T13:23:50.679Z,97388.56
2023-02-26T13:26:21.500Z,97375.94
2023-02-26T13:29:03.587Z,97382.28
2023-02-26T13:31:48.091Z,97391.22
2023-02-26T13:34:38.893Z,97414.44
2023-02-26T13:37:06.839Z,97402.03
2023-02-26T13:39:50.296Z,97402.06
2023-02-26T13:42:34.230Z,97433.03
2023-02-26T13:45:34.182Z,97406.56
2023-02-26T13:48:12.767Z,97414.50
2023-02-26T13:50:46.550Z,97433.03
2023-02-26T13:53:44.005Z,97405.38
2023-02-26T13:56:40.165Z,97413.94
2023-02-26T13:59:15.549Z,97427.38
2023-02-26T14:01:48.665Z,97437.34
2023-02-26T14:04:24.295Z,97445.31
2023-02-26T14:06:59.674Z,97464.88
2023-02-26T14:10:04.983Z,97462.22
2023-02-26T14:12:41.258Z,97475.66
2023-02-26T14:15:29.044Z,97494.59
2023-02-26T14:18:06.111Z,97476.69
2023-02-26T14:20:35.916Z,97495.41
2023-02-26T14:23:12.163Z,97517.56
2023-02-26T14:30:15.802Z,97489.69
2023-02-26T14:33:16.726Z,97526.28
2023-02-26T14:37:05.676Z,97506.31
2023-02-26T14:40:01.036Z,97534.81
2023-02-26T14:43:03.471Z,97534.00
2023-02-26T14:52:17.192Z,97550.81
2023-02-26T14:55:30.694Z,97553.50
2023-02-26T15:02:18.834Z,97558.13
2023-02-26T15:05:42.261Z,97564.16
2023-02-26T15:09:16.986Z,97581.03
2023-02-26T15:16:32.202Z,97604.97
2023-02-26T15:22:48.637Z,97597.56
2023-02-26T15:26:34.180Z,97597.53
2023-02-26T15:33:19.539Z,97612.31
2023-02-26T15:36:01.346Z,97605.34
2023-02-26T15:42:20.357Z,97623.88
2023-02-26T15:45:04.138Z,97619.84
2023-02-26T15:47:42.092Z,97628.97
2023-02-26T15:50:25.774Z,97640.66
2023-02-26T15:53:36.349Z,97645.09
2023-02-26T15:56:45.176Z,97664.78
2023-02-26T15:59:17.491Z,97667.06
2023-02-26T16:01:44.695Z,97667.06
2023-02-26T16:04:20.860Z,97663.16
2023-02-26T16:06:54.789Z,97674.50
2023-02-26T16:09:35.945Z,97687.50
2023-02-26T16:12:35.692Z,97682.22
2023-02-26T16:15:06.620Z,97711.31
2023-02-26T16:17:35.901Z,97680.84
2023-02-26T16:20:07.948Z,97686.19
2023-02-26T16:22:39.251Z,97720.28
2023-02-26T16:25:19.739Z,97707.69
2023-02-26T16:28:00.590Z,97708.66
2023-02-26T16:30:35.469Z,97715.72
2023-02-26T16:45:58.465Z,97744.66
2023-02-26T16:48:31.821Z,97756.53
2023-02-26T16:51:05.696Z,97731.97
2023-02-26T16:53:48.604Z,97730.31
2023-02-26T16:56:21.086Z,97750.47
2023-02-26T16:58:57.242Z,97748.78
2023-02-26T17:01:26.583Z,97796.53
2023-02-26T17:04:00.762Z,97763.16
2023-02-26T17:06:34.016Z,97787.47
2023-02-26T17:09:37.981Z,97800.59
2023-02-26T17:12:20.621Z,97801.28
2023-02-26T17:14:57.372Z,97806.69
2023-02-26T17:17:28.176Z,97801.16
2023-02-26T17:19:57.264Z,97803.16
2023-02-26T17:22:32.485Z,97799.00
2023-02-26T17:25:06.276Z,97798.72
2023-02-26T17:27:38.585Z,97814.63
2023-02-26T17:30:07.177Z,97798.09
2023-02-26T17:32:36.285Z,97820.81
2023-02-26T17:35:06.623Z,97836.25
2023-02-26T17:37:43.183Z,97828.81
2023-02-26T17:40:33.867Z,97828.81
2023-02-26T17:43:01.074Z,97845.19
2023-02-26T17:45:28.057Z,97847.66
2023-02-26T17:47:55.601Z,97857.44
2023-02-26T17:50:37.061Z,97855.97
2023-02-26T17:53:05.409Z,97871.44
2023-02-26T17:55:33.404Z,97867.44
2023-02-26T17:58:03.251Z,97868.41
2023-02-26T18:00:30.481Z,97858.03
2023-02-26T18:02:57.915Z,97854.59
2023-02-26T18:05:27.849Z,97875.16
2023-02-26T18:07:55.350Z,97862.59
2023-02-26T18:10:25.116Z,97879.59
2023-02-26T18:12:52.349Z,97873.94
2023-02-26T18:15:19.763Z,97868.78
2023-02-26T18:17:47.054Z,97878.03
2023-02-26T18:20:22.592Z,97885.28
2023-02-26T18:22:50.740Z,97902.75
2023-02-26T18:25:18.263Z,97900.75
2023-02-26T18:27:54.973Z,97888.59
2023-02-26T18:30:27.691Z,97913.31
2023-02-26T18:32:55.544Z,97913.91
2023-02-26T18:35:24.411Z,97912.44
2023-02-26T18:37:53.095Z,97908.25
2023-02-26T18:40:22.787Z,97908.13
2023-02-26T18:42:50.629Z,97934.41
2023-02-26T18:45:18.269Z,97949.25
2023-02-26T18:47:45.940Z,97930.28
2023-02-26T18:50:14.994Z,97961.19
2023-02-26T18:52:43.377Z,97974.81
2023-02-26T18:55:12.345Z,97959.56
2023-02-26T18:57:40.638Z,97952.84
2023-02-26T19:00:14.123Z,97951.00
2023-02-26T19:02:43.089Z,97955.91
2023-02-26T19:05:11.170Z,97958.69
2023-02-26T19:07:38.943Z,97977.44
2023-02-26T19:10:09.142Z,97976.63
2023-02-26T19:12:36.588Z,97977.09
2023-02-26T19:15:04.311Z,97965.03
2023-02-26T19:17:31.480Z,97985.06
2023-02-26T19:20:00.777Z,97957.75
2023-02-26T19:22:27.955Z,97984.00
2023-02-26T19:24:54.934Z,97995.81
2023-02-26T19:27:22.036Z,97997.00
2023-02-26T19:29:49.200Z,98014.44
2023-02-26T19:32:19.394Z,98005.41
2023-02-26T19:34:46.378Z,98005.75
2023-02-26T19:37:14.441Z,98018.09
2023-02-26T19:39:41.649Z,98019.84
2023-02-26T19:42:08.963Z,98010.63
2023-02-26T19:44:36.226Z,98007.34
2023-02-26T19:47:03.365Z,98033.94
2023-02-26T19:49:30.362Z,98032.81
2023-02-26T19:51:57.403Z,98050.13
2023-02-26T19:54:26.660Z,98022.16
2023-02-26T19:56:54.991Z,98039.44
2023-02-26T19:59:22.035Z,98038.91
2023-02-26T20:01:49.934Z,98055.06
2023-02-26T20:04:17.836Z,98045.56
2023-02-26T20:06:45.472Z,98034.06
2023-02-26T20:09:12.927Z,98066.63
2023-02-26T20:11:42.379Z,98051.16
2023-02-26T20:14:09.575Z,98087.38
2023-02-26T20:16:36.631Z,98066.41
2023-02-26T20:19:04.069Z,98092.06
2023-02-26T20:21:31.312Z,98079.38
2023-02-26T20:23:58.855Z,98059.03
2023-02-26T20:26:25.922Z,98084.31
2023-02-26T20:28:55.731Z,98082.41
2023-02-26T20:31:22.900Z,98084.53
2023-02-26T20:33:50.206Z,98089.94
2023-02-26T20:36:17.365Z,98105.28
2023-02-26T20:38:44.635Z,98100.19
2023-02-26T20:41:11.892Z,98105.59
2023-02-26T20:43:39.044Z,98115.81
2023-02-26T20:46:06.217Z,98120.78
2023-02-26T20:48:34.704Z,98114.03
2023-02-26T20:51:06.536Z,98121.94
2023-02-26T20:53:33.916Z,98138.53
2023-02-26T20:56:00.863Z,98146.59
2023-02-26T20:58:28.100Z,98146.78
2023-02-26T21:00:56.290Z,98145.31
2023-02-26T21:03:24.235Z,98177.44
2023-02-26T21:05:51.622Z,98167.50
2023-02-26T21:08:18.787Z,98184.63
2023-02-26T21:10:45.937Z,98168.69
2023-02-26T21:13:12.993Z,98188.25
2023-02-26T21:15:39.970Z,98178.72
2023-02-26T21:18:07.345Z,98170.97
2023-02-26T21:20:34.576Z,98183.97
2023-02-26T21:23:01.681Z,98165.72
2023-02-26T21:25:31.451Z,98196.97
2023-02-26T21:27:59.153Z,98192.19
2023-02-26T21:30:26.392Z,98186.13
2023-02-26T21:32:53.751Z,98203.56
2023-02-26T21:35:20.786Z,98187.78
2023-02-26T21:37:47.870Z,98195.03
2023-02-26T21:40:15.926Z,98239.09
2023-02-26T21:42:43.509Z,98220.53
2023-02-26T21:45:11.011Z,98238.66
2023-02-26T21:47:38.088Z,98233.53
2023-02-26T21:50:06.368Z,98227.78
2023-02-26T21:52:33.577Z,98213.63
2023-02-26T21:55:00.673Z,98253.59
2023-02-26T21:57:27.806Z,98228.44
2023-02-26T21:59:54.790Z,98255.41
2023-02-26T22:02:21.927Z,98279.28
2023-02-26T22:04:49.026Z,98279.94
2023-02-26T22:07:16.200Z,98282.25
2023-02-26T22:09:46.240Z,98274.88
2023-02-26T22:12:14.342Z,98282.91
2023-02-26T22:14:41.336Z,98294.78
2023-02-26T22:17:08.358Z,98298.03
2023-02-26T22:19:35.343Z,98297.41
2023-02-26T22:22:02.431Z,98296.09
2023-02-26T22:24:29.419Z,98302.66
2023-02-26T22:26:56.559Z,98302.97
2023-02-26T22:29:23.804Z,98319.44
2023-02-26T22:31:53.277Z,98342.66
2023-02-26T22:34:20.918Z,98333.28
2023-02-26T22:36:48.014Z,98335.44
2023-02-26T22:39:15.858Z,98342.47
2023-02-26T22:41:42.828Z,98326.34
2023-02-26T22:44:09.777Z,98344.97
2023-02-26T22:46:37.517Z,98361.91
2023-02-26T22:49:05.191Z,98345.59
2023-02-26T22:51:33.187Z,98396.47
2023-02-26T22:54:00.846Z,98357.31
2023-02-26T22:56:28.422Z,98370.28
2023-02-26T22:58:55.344Z,98381.97
2023-02-26T23:01:27.279Z,98369.78
2023-02-26T23:03:54.198Z,98377.38
2023-02-26T23:06:21.376Z,98391.19
2023-02-26T23:08:48.274Z,98383.09
2023-02-26T23:11:15.264Z,98391.81
2023-02-26T23:13:42.426Z,98398.09
2023-02-26T23:16:11.263Z,98407.28
2023-02-26T23:18:39.594Z,98404.66
2023-02-26T23:21:08.281Z,98405.66
2023-02-26T23:23:35.307Z,98400.72
2023-02-26T23:26:02.537Z,98421.44
2023-02-26T23:28:29.493Z,98411.56
2023-02-26T23:30:56.547Z,98422.91
2023-02-26T23:33:23.737Z,98433.44
2023-02-26T23:35:50.786Z,98436.91
2023-02-26T23:38:17.912Z,98438.38
2023-02-26T23:40:45.154Z,98445.97
2023-02-26T23:43:12.100Z,98440.34
2023-02-26T23:45:39.114Z,98440.34
2023-02-26T23:48:06.372Z,98446.28
2023-02-26T23:50:33.532Z,98464.03
2023-02-26T23:53:00.752Z,98452.69
2023-02-26T23:55:27.767Z,98455.81
2023-02-26T23:57:54.710Z,98470.63
